createdAt,value
2017-02-14T00:00:14.412Z,-4.2
2017-02-14T00:01:20.412Z,-4.2
2017-02-14T00:02:25.788Z,-4.2
2017-02-14T00:03:31.786Z,-4.1
2017-02-14T00:04:36.690Z,-4.2
2017-02-14T00:05:42.683Z,-4.2
2017-02-14T00:06:48.681Z,-4.1
2017-02-14T00:07:55.012Z,-4.2
2017-02-14T00:09:00.682Z,-4.2
2017-02-14T00:10:06.694Z,-4.2
2017-02-14T00:11:12.681Z,-4.3
2017-02-14T00:12:18.677Z,-4.3
2017-02-14T00:13:24.676Z,-4.3
2017-02-14T00:14:30.020Z,-4.2
2017-02-14T00:15:36.028Z,-4.3
2017-02-14T00:16:42.029Z,-4.2
2017-02-14T00:17:48.055Z,-4.3
2017-02-14T00:18:54.081Z,-4.2
2017-02-14T00:20:00.092Z,-4.3
2017-02-14T00:21:06.098Z,-4.3
2017-02-14T00:22:12.098Z,-4.3
2017-02-14T00:23:16.994Z,-4.2
2017-02-14T00:24:23.001Z,-4.3
2017-02-14T00:25:28.346Z,-4.3
2017-02-14T00:26:34.347Z,-4.3
2017-02-14T00:27:40.343Z,-4.3
2017-02-14T00:28:46.349Z,-4.3
2017-02-14T00:29:52.354Z,-4.3
2017-02-14T00:30:58.353Z,-4.3
2017-02-14T00:32:04.350Z,-4.3
2017-02-14T00:33:10.353Z,-4.3
2017-02-14T00:34:16.349Z,-4.3
2017-02-14T00:35:22.358Z,-4.3
2017-02-14T00:36:27.275Z,-4.3
2017-02-14T00:37:33.283Z,-4.4
2017-02-14T00:38:38.611Z,-4.3
2017-02-14T00:39:44.619Z,-4.2
2017-02-14T00:40:50.653Z,-4.2
2017-02-14T00:41:55.989Z,-4.2
2017-02-14T00:43:01.978Z,-4.3
2017-02-14T00:44:07.983Z,-4.4
2017-02-14T00:45:14.003Z,-4.3
2017-02-14T00:46:20.011Z,-4.3
2017-02-14T00:47:26.232Z,-4.3
2017-02-14T00:48:32.236Z,-4.3
2017-02-14T00:49:38.255Z,-4.3
2017-02-14T00:50:44.255Z,-4.3
2017-02-14T00:51:50.260Z,-4.4
2017-02-14T00:52:55.604Z,-4.3
2017-02-14T00:54:01.621Z,-4.3
2017-02-14T00:55:06.975Z,-4.4
2017-02-14T00:56:12.962Z,-4.3
2017-02-14T00:57:18.960Z,-4.3
2017-02-14T00:58:23.856Z,-4.2
2017-02-14T00:59:29.858Z,-4.2
2017-02-14T01:00:34.754Z,-4.2
2017-02-14T01:01:40.761Z,-4.3
2017-02-14T01:02:46.758Z,-4.3
2017-02-14T01:03:52.758Z,-4.3
2017-02-14T01:04:58.792Z,-4.3
2017-02-14T01:06:04.798Z,-4.3
2017-02-14T01:07:10.766Z,-4.4
2017-02-14T01:08:16.767Z,-4.3
2017-02-14T01:09:22.764Z,-4.4
2017-02-14T01:10:28.766Z,-4.2
2017-02-14T01:11:34.764Z,-4.2
2017-02-14T01:12:40.816Z,-4.2
2017-02-14T01:13:46.820Z,-4.2
2017-02-14T01:14:52.162Z,-4.2
2017-02-14T01:15:58.189Z,-4.2
2017-02-14T01:17:04.182Z,-4.2
2017-02-14T01:18:10.185Z,-4.3
2017-02-14T01:19:16.188Z,-4.3
2017-02-14T01:20:21.578Z,-4.3
2017-02-14T01:21:27.580Z,-4.4
2017-02-14T01:22:32.918Z,-4.3
2017-02-14T01:23:38.916Z,-4.3
2017-02-14T01:24:44.920Z,-4.2
2017-02-14T01:25:50.923Z,-4.3
2017-02-14T01:26:56.924Z,-4.3
2017-02-14T01:28:02.926Z,-4.2
2017-02-14T01:29:08.924Z,-4.3
2017-02-14T01:30:14.927Z,-4.3
2017-02-14T01:31:20.925Z,-4.3
2017-02-14T01:32:26.931Z,-4.2
2017-02-14T01:33:32.927Z,-4.2
2017-02-14T01:34:38.917Z,-4.2
2017-02-14T01:35:44.916Z,-4.2
2017-02-14T01:36:50.920Z,-4.2
2017-02-14T01:37:55.824Z,-4.2
2017-02-14T01:39:01.829Z,-4.2
2017-02-14T01:40:07.828Z,-4.2
2017-02-14T01:41:13.833Z,-4.2
2017-02-14T01:42:19.836Z,-4.3
2017-02-14T01:43:25.384Z,-4.2
2017-02-14T01:44:31.390Z,-4.2
2017-02-14T01:45:37.389Z,-4.3
2017-02-14T01:46:42.294Z,-4.2
2017-02-14T01:47:47.629Z,-4.2
2017-02-14T01:48:53.627Z,-4.1
2017-02-14T01:49:58.962Z,-4.2
2017-02-14T01:51:04.299Z,-4.1
2017-02-14T01:52:09.639Z,-4.1
2017-02-14T01:53:15.644Z,-4.1
2017-02-14T01:54:21.639Z,-4.1
2017-02-14T01:55:26.548Z,-4.1
2017-02-14T01:56:32.551Z,-4.2
2017-02-14T01:57:38.552Z,-4.1
2017-02-14T01:58:44.557Z,-4.2
2017-02-14T01:59:50.548Z,-4.2
2017-02-14T02:00:56.551Z,-4.2
2017-02-14T02:02:01.888Z,-4.1
2017-02-14T02:03:07.886Z,-4
2017-02-14T02:04:13.885Z,-4
2017-02-14T02:05:19.896Z,-4
2017-02-14T02:06:25.893Z,-4
2017-02-14T02:07:31.902Z,-4.1
2017-02-14T02:08:38.191Z,-4
2017-02-14T02:09:43.917Z,-4
2017-02-14T02:10:49.912Z,-4.1
2017-02-14T02:11:55.915Z,-4.1
2017-02-14T02:13:01.996Z,-4.1
2017-02-14T02:14:07.994Z,-4
2017-02-14T02:15:13.993Z,-4.1
2017-02-14T02:16:19.331Z,-4
2017-02-14T02:17:25.337Z,-4.1
2017-02-14T02:18:30.670Z,-4.2
2017-02-14T02:19:36.682Z,-4.2
2017-02-14T02:20:42.684Z,-4.3
2017-02-14T02:21:48.022Z,-4.2
2017-02-14T02:22:54.022Z,-4.2
2017-02-14T02:24:00.042Z,-4.2
2017-02-14T02:25:06.024Z,-4.2
2017-02-14T02:26:12.021Z,-4.2
2017-02-14T02:27:18.027Z,-4.3
2017-02-14T02:28:23.377Z,-4.3
2017-02-14T02:29:29.362Z,-4.2
2017-02-14T02:30:35.366Z,-4.2
2017-02-14T02:31:40.708Z,-4.2
2017-02-14T02:32:46.711Z,-4.1
2017-02-14T02:33:52.710Z,-4.2
2017-02-14T02:34:58.709Z,-4.1
2017-02-14T02:36:04.707Z,-4.1
2017-02-14T02:37:10.707Z,-4.2
2017-02-14T02:38:16.712Z,-4.2
2017-02-14T02:39:22.392Z,-4.1
2017-02-14T02:40:28.055Z,-4.1
2017-02-14T02:41:34.051Z,-4.1
2017-02-14T02:42:38.953Z,-4.1
2017-02-14T02:43:44.954Z,-4.1
2017-02-14T02:44:50.957Z,-4.1
2017-02-14T02:45:56.956Z,-4.1
2017-02-14T02:47:02.955Z,-4.1
2017-02-14T02:48:08.956Z,-4.1
2017-02-14T02:49:14.959Z,-4.1
2017-02-14T02:50:20.949Z,-4.1
2017-02-14T02:51:26.944Z,-4.1
2017-02-14T02:52:32.945Z,-4.2
2017-02-14T02:53:37.189Z,-4.2
2017-02-14T02:54:43.187Z,-4.2
2017-02-14T02:55:49.190Z,-4.2
2017-02-14T02:56:55.192Z,-4.1
2017-02-14T02:58:01.223Z,-4.2
2017-02-14T02:59:07.193Z,-4.2
2017-02-14T03:00:12.102Z,-4.2
2017-02-14T03:01:16.777Z,-4.3
2017-02-14T03:02:22.771Z,-4.3
2017-02-14T03:03:28.769Z,-4.2
2017-02-14T03:04:34.775Z,-4.2
2017-02-14T03:05:40.780Z,-4.2
2017-02-14T03:06:46.788Z,-4.3
2017-02-14T03:07:51.024Z,-4.3
2017-02-14T03:08:57.024Z,-4.2
2017-02-14T03:10:01.921Z,-4.4
2017-02-14T03:11:07.255Z,-4.3
2017-02-14T03:12:13.259Z,-4.2
2017-02-14T03:13:19.261Z,-4.2
2017-02-14T03:14:25.262Z,-4.2
2017-02-14T03:15:30.598Z,-4.2
2017-02-14T03:16:36.604Z,-4.2
2017-02-14T03:17:42.601Z,-4.2
2017-02-14T03:18:48.598Z,-4.1
2017-02-14T03:19:54.604Z,-4.1
2017-02-14T03:21:00.605Z,-4.1
2017-02-14T03:22:06.603Z,-4.1
2017-02-14T03:23:12.601Z,-4.1
2017-02-14T03:24:17.504Z,-4.2
2017-02-14T03:25:23.508Z,-4.2
2017-02-14T03:26:29.510Z,-4.1
2017-02-14T03:27:35.508Z,-4.1
2017-02-14T03:28:41.515Z,-4.1
2017-02-14T03:29:47.510Z,-4.1
2017-02-14T03:30:53.511Z,-4.1
2017-02-14T03:31:59.508Z,-4.2
2017-02-14T03:33:04.855Z,-4.3
2017-02-14T03:34:10.852Z,-4.2
2017-02-14T03:35:16.848Z,-4.2
2017-02-14T03:36:22.858Z,-4.2
2017-02-14T03:37:28.857Z,-4.1
2017-02-14T03:38:34.852Z,-4.1
2017-02-14T03:39:40.854Z,-4.2
2017-02-14T03:40:46.857Z,-4.2
2017-02-14T03:41:52.852Z,-4.2
2017-02-14T03:42:58.845Z,-4.2
2017-02-14T03:44:03.748Z,-4.2
2017-02-14T03:45:09.754Z,-4.2
2017-02-14T03:46:15.758Z,-4.2
2017-02-14T03:47:21.098Z,-4.2
2017-02-14T03:48:27.097Z,-4.2
2017-02-14T03:49:33.091Z,-4.3
2017-02-14T03:50:39.090Z,-4.3
2017-02-14T03:51:45.095Z,-4.3
2017-02-14T03:52:50.429Z,-4.3
2017-02-14T03:53:55.772Z,-4.3
2017-02-14T03:55:01.775Z,-4.3
2017-02-14T03:56:07.785Z,-4.2
2017-02-14T03:57:13.777Z,-4.2
2017-02-14T03:58:19.775Z,-4.2
2017-02-14T03:59:25.779Z,-4.2
2017-02-14T04:00:31.778Z,-4.3
2017-02-14T04:01:37.776Z,-4.4
2017-02-14T04:02:43.777Z,-4.3
2017-02-14T04:03:49.780Z,-4.3
2017-02-14T04:04:55.773Z,-4.3
2017-02-14T04:06:01.779Z,-4.2
2017-02-14T04:07:07.770Z,-4.2
2017-02-14T04:08:13.775Z,-4.2
2017-02-14T04:09:19.771Z,-4.3
2017-02-14T04:10:24.673Z,-4.3
2017-02-14T04:11:30.679Z,-4.3
2017-02-14T04:12:36.675Z,-4.3
2017-02-14T04:13:42.676Z,-4.3
2017-02-14T04:14:48.681Z,-4.3
2017-02-14T04:15:54.685Z,-4.2
2017-02-14T04:17:00.687Z,-4.2
2017-02-14T04:18:06.681Z,-4.2
2017-02-14T04:19:12.685Z,-4.2
2017-02-14T04:20:18.686Z,-4.3
2017-02-14T04:21:24.684Z,-4.3
2017-02-14T04:22:30.682Z,-4.2
2017-02-14T04:23:36.019Z,-4.2
2017-02-14T04:24:41.368Z,-4.2
2017-02-14T04:25:46.705Z,-4.3
2017-02-14T04:26:52.699Z,-4.2
2017-02-14T04:27:58.695Z,-4.2
2017-02-14T04:29:04.702Z,-4.2
2017-02-14T04:30:10.701Z,-4.1
2017-02-14T04:31:16.703Z,-4.2
2017-02-14T04:32:22.700Z,-4.2
2017-02-14T04:33:28.706Z,-4.2
2017-02-14T04:34:34.696Z,-4.3
2017-02-14T04:35:40.689Z,-4.2
2017-02-14T04:36:46.691Z,-4.2
2017-02-14T04:37:52.039Z,-4.2
2017-02-14T04:38:58.037Z,-4.2
2017-02-14T04:40:04.041Z,-4.1
2017-02-14T04:41:10.040Z,-4.2
2017-02-14T04:42:16.041Z,-4.2
2017-02-14T04:43:22.039Z,-4.2
2017-02-14T04:44:28.044Z,-4.2
2017-02-14T04:45:34.041Z,-4.2
2017-02-14T04:46:40.040Z,-4.2
2017-02-14T04:47:46.047Z,-4.2
2017-02-14T04:48:52.046Z,-4.2
2017-02-14T04:49:58.042Z,-4.1
2017-02-14T04:51:02.950Z,-4.1
2017-02-14T04:52:08.956Z,-4.1
2017-02-14T04:53:14.959Z,-4.1
2017-02-14T04:54:20.959Z,-4.1
2017-02-14T04:55:26.963Z,-4.2
2017-02-14T04:56:32.968Z,-4.2
2017-02-14T04:57:38.969Z,-4.1
2017-02-14T04:58:44.312Z,-4.2
2017-02-14T04:59:50.317Z,-4.1
2017-02-14T05:00:56.318Z,-4.2
2017-02-14T05:02:02.313Z,-4.1
2017-02-14T05:03:08.310Z,-4.1
2017-02-14T05:04:14.317Z,-4.2
2017-02-14T05:05:20.315Z,-4.2
2017-02-14T05:06:26.310Z,-4.2
2017-02-14T05:07:32.313Z,-4.2
2017-02-14T05:08:37.215Z,-4.2
2017-02-14T05:09:43.218Z,-4.1
2017-02-14T05:10:49.216Z,-4.2
2017-02-14T05:11:55.215Z,-4.2
2017-02-14T05:13:01.220Z,-4.1
2017-02-14T05:14:06.558Z,-4.2
2017-02-14T05:15:12.560Z,-4.2
2017-02-14T05:16:18.558Z,-4.2
2017-02-14T05:17:24.560Z,-4.2
2017-02-14T05:18:30.559Z,-4.1
2017-02-14T05:19:35.892Z,-4.2
2017-02-14T05:20:41.890Z,-4.2
2017-02-14T05:21:47.890Z,-4.2
2017-02-14T05:22:53.889Z,-4.2
2017-02-14T05:23:58.791Z,-4.2
2017-02-14T05:25:04.786Z,-4.2
2017-02-14T05:26:10.788Z,-4.2
2017-02-14T05:27:16.793Z,-4.2
2017-02-14T05:28:22.799Z,-4.2
2017-02-14T05:29:27.695Z,-4.2
2017-02-14T05:30:33.692Z,-4.1
2017-02-14T05:31:39.691Z,-4.1
2017-02-14T05:32:45.695Z,-4.1
2017-02-14T05:33:51.700Z,-4.1
2017-02-14T05:34:57.699Z,-4.2
2017-02-14T05:36:03.699Z,-4.2
2017-02-14T05:37:09.697Z,-4.3
2017-02-14T05:38:15.709Z,-4.3
2017-02-14T05:39:20.612Z,-4.2
2017-02-14T05:40:26.609Z,-4.2
2017-02-14T05:41:32.603Z,-4.3
2017-02-14T05:42:38.613Z,-4.3
2017-02-14T05:43:44.611Z,-4.3
2017-02-14T05:44:50.609Z,-4.2
2017-02-14T05:45:55.950Z,-4.3
2017-02-14T05:47:01.966Z,-4.3
2017-02-14T05:48:07.297Z,-4.3
2017-02-14T05:49:12.201Z,-4.3
2017-02-14T05:50:18.218Z,-4.2
2017-02-14T05:51:23.124Z,-4.3
2017-02-14T05:52:29.136Z,-4.3
2017-02-14T05:53:35.148Z,-4.3
2017-02-14T05:54:40.047Z,-4.2
2017-02-14T05:55:46.057Z,-4.2
2017-02-14T05:56:52.045Z,-4.2
2017-02-14T05:57:58.048Z,-4.2
2017-02-14T05:59:04.057Z,-4.3
2017-02-14T06:00:10.054Z,-4.3
2017-02-14T06:01:16.080Z,-4.3
2017-02-14T06:02:22.074Z,-4.3
2017-02-14T06:03:27.438Z,-4.3
2017-02-14T06:04:33.434Z,-4.3
2017-02-14T06:05:39.443Z,-4.3
2017-02-14T06:06:45.438Z,-4.3
2017-02-14T06:07:51.442Z,-4.3
2017-02-14T06:08:57.452Z,-4.3
2017-02-14T06:10:02.805Z,-4.3
2017-02-14T06:11:08.796Z,-4.3
2017-02-14T06:12:14.816Z,-4.3
2017-02-14T06:13:20.162Z,-4.3
2017-02-14T06:14:26.155Z,-4.4
2017-02-14T06:15:32.160Z,-4.3
2017-02-14T06:16:38.165Z,-4.3
2017-02-14T06:17:44.175Z,-4.3
2017-02-14T06:18:50.177Z,-4.4
2017-02-14T06:19:56.185Z,-4.4
2017-02-14T06:21:02.193Z,-4.4
2017-02-14T06:22:08.197Z,-4.4
2017-02-14T06:23:14.207Z,-4.4
2017-02-14T06:24:20.215Z,-4.4
2017-02-14T06:25:26.223Z,-4.5
2017-02-14T06:26:31.122Z,-4.5
2017-02-14T06:27:37.146Z,-4.4
2017-02-14T06:28:43.154Z,-4.3
2017-02-14T06:29:48.081Z,-4.3
2017-02-14T06:30:54.166Z,-4.4
2017-02-14T06:31:59.066Z,-4.4
2017-02-14T06:33:05.056Z,-4.4
2017-02-14T06:34:11.063Z,-4.4
2017-02-14T06:35:16.403Z,-4.4
2017-02-14T06:36:22.406Z,-4.4
2017-02-14T06:37:28.439Z,-4.5
2017-02-14T06:38:34.442Z,-4.5
2017-02-14T06:39:40.441Z,-4.5
2017-02-14T06:40:46.443Z,-4.5
2017-02-14T06:41:52.512Z,-4.4
2017-02-14T06:42:58.526Z,-4.3
2017-02-14T06:44:04.726Z,-4.3
2017-02-14T06:45:10.909Z,-4.3
2017-02-14T06:46:16.910Z,-4.3
2017-02-14T06:47:22.249Z,-4.2
2017-02-14T06:48:28.258Z,-4.3
2017-02-14T06:49:34.256Z,-4.3
2017-02-14T06:50:40.260Z,-4.3
2017-02-14T06:51:46.266Z,-4.4
2017-02-14T06:52:52.276Z,-4.4
2017-02-14T06:53:58.276Z,-4.3
2017-02-14T06:55:04.291Z,-4.3
2017-02-14T06:56:10.297Z,-4.3
2017-02-14T06:57:16.309Z,-4.3
2017-02-14T06:58:22.316Z,-4.3
2017-02-14T06:59:28.320Z,-4.3
2017-02-14T07:00:34.336Z,-4.3
2017-02-14T07:01:40.333Z,-4.4
2017-02-14T07:02:46.329Z,-4.4
2017-02-14T07:03:52.335Z,-4.3
2017-02-14T07:04:58.332Z,-4.3
2017-02-14T07:06:04.334Z,-4.2
2017-02-14T07:07:10.339Z,-4.2
2017-02-14T07:08:15.682Z,-4.3
2017-02-14T07:09:20.575Z,-4.4
2017-02-14T07:10:26.580Z,-4.3
2017-02-14T07:11:32.584Z,-4.3
2017-02-14T07:12:38.587Z,-4.3
2017-02-14T07:13:43.940Z,-4.3
2017-02-14T07:14:49.941Z,-4.3
2017-02-14T07:15:55.957Z,-4.3
2017-02-14T07:17:01.942Z,-4.2
2017-02-14T07:18:07.288Z,-4.2
2017-02-14T07:19:12.221Z,-4.2
2017-02-14T07:20:17.550Z,-4.2
2017-02-14T07:21:23.552Z,-4.1
2017-02-14T07:22:28.453Z,-4.1
2017-02-14T07:23:34.451Z,-4.1
2017-02-14T07:24:40.451Z,-4.1
2017-02-14T07:25:46.459Z,-4
2017-02-14T07:26:52.465Z,-4.1
2017-02-14T07:27:58.465Z,-4.1
2017-02-14T07:29:04.466Z,-4.1
2017-02-14T07:30:10.468Z,-4.2
2017-02-14T07:31:16.471Z,-4.1
2017-02-14T07:32:22.465Z,-4.1
2017-02-14T07:33:28.460Z,-4.1
2017-02-14T07:34:34.466Z,-4.1
2017-02-14T07:35:40.501Z,-4
2017-02-14T07:36:46.513Z,-4.1
2017-02-14T07:37:52.651Z,-4.1
2017-02-14T07:38:58.661Z,-4
2017-02-14T07:40:04.659Z,-4.1
2017-02-14T07:41:10.662Z,-4.1
2017-02-14T07:42:16.658Z,-4.2
2017-02-14T07:43:22.969Z,-4.2
2017-02-14T07:44:28.772Z,-4
2017-02-14T07:45:34.769Z,-4
2017-02-14T07:46:40.765Z,-4
2017-02-14T07:47:46.776Z,-4
2017-02-14T07:48:52.119Z,-4
2017-02-14T07:49:58.118Z,-3.9
2017-02-14T07:51:03.454Z,-3.9
2017-02-14T07:52:09.463Z,-3.9
2017-02-14T07:53:15.458Z,-3.8
2017-02-14T07:54:21.597Z,-3.8
2017-02-14T07:55:26.496Z,-3.8
2017-02-14T07:56:32.502Z,-3.8
2017-02-14T07:57:37.398Z,-3.7
2017-02-14T07:58:43.402Z,-3.7
2017-02-14T07:59:48.303Z,-3.6
2017-02-14T08:00:54.297Z,-3.6
2017-02-14T08:01:59.635Z,-3.6
2017-02-14T08:03:05.641Z,-3.6
2017-02-14T08:04:11.644Z,-3.6
2017-02-14T08:05:17.138Z,-3.6
2017-02-14T08:06:23.145Z,-3.6
2017-02-14T08:07:28.049Z,-3.6
2017-02-14T08:08:34.053Z,-3.5
2017-02-14T08:09:40.050Z,-3.4
2017-02-14T08:10:46.055Z,-3.5
2017-02-14T08:11:52.052Z,-3.4
2017-02-14T08:12:58.051Z,-3.4
2017-02-14T08:14:04.052Z,-3.4
2017-02-14T08:15:10.049Z,-3.3
2017-02-14T08:16:16.046Z,-3.3
2017-02-14T08:17:22.045Z,-3.2
2017-02-14T08:18:28.050Z,-3.1
2017-02-14T08:19:34.047Z,-3
2017-02-14T08:20:40.048Z,-3
2017-02-14T08:21:46.044Z,-2.9
2017-02-14T08:22:52.048Z,-2.8
2017-02-14T08:23:58.053Z,-2.8
2017-02-14T08:25:04.055Z,-2.7
2017-02-14T08:26:10.070Z,-2.6
2017-02-14T08:27:14.981Z,-2.4
2017-02-14T08:28:20.332Z,-2.4
2017-02-14T08:29:26.576Z,-2.4
2017-02-14T08:30:32.570Z,-2.2
2017-02-14T08:31:38.619Z,-2.1
2017-02-14T08:32:44.636Z,-2
2017-02-14T08:33:50.667Z,-2
2017-02-14T08:34:56.023Z,-1.7
2017-02-14T08:36:02.025Z,-1.6
2017-02-14T08:37:08.038Z,-1.4
2017-02-14T08:38:14.079Z,-1.4
2017-02-14T08:39:20.098Z,-1.4
2017-02-14T08:40:26.106Z,-1.4
2017-02-14T08:41:35.432Z,-1.4
2017-02-14T08:42:47.758Z,-1.4
2017-02-14T08:43:53.108Z,-1.4
2017-02-14T08:44:59.120Z,-1.3
2017-02-14T08:46:05.141Z,-1.3
2017-02-14T08:47:11.155Z,-1.1
2017-02-14T08:48:17.167Z,-1.1
2017-02-14T08:49:23.178Z,-1.3
2017-02-14T08:50:29.196Z,-1.2
2017-02-14T08:51:35.252Z,-1
2017-02-14T08:52:41.231Z,-0.9
2017-02-14T08:53:47.240Z,-0.8
2017-02-14T08:54:53.251Z,-0.9
2017-02-14T08:55:59.261Z,-0.7
2017-02-14T08:57:05.564Z,-0.6
2017-02-14T08:58:11.309Z,-0.5
2017-02-14T08:59:17.309Z,-0.4
2017-02-14T09:00:23.625Z,-0.2
2017-02-14T09:01:29.323Z,-0.1
2017-02-14T09:02:35.336Z,-0.1
2017-02-14T09:03:41.345Z,0
2017-02-14T09:04:47.337Z,0.1
2017-02-14T09:05:53.371Z,0.1
2017-02-14T09:06:59.411Z,0.2
2017-02-14T09:08:05.394Z,0.2
2017-02-14T09:09:11.401Z,0.3
2017-02-14T09:10:16.741Z,0.3
2017-02-14T09:11:22.743Z,0.3
2017-02-14T09:12:28.743Z,0.3
2017-02-14T09:13:34.745Z,0.4
2017-02-14T09:14:40.740Z,0.6
2017-02-14T09:15:46.751Z,0.7
2017-02-14T09:16:51.664Z,0.6
2017-02-14T09:17:57.703Z,0.8
2017-02-14T09:19:03.696Z,0.9
2017-02-14T09:20:09.719Z,1.1
2017-02-14T09:21:15.818Z,1.2
2017-02-14T09:22:21.826Z,1.3
2017-02-14T09:23:27.838Z,1.3
2017-02-14T09:24:32.736Z,1.5
2017-02-14T09:25:38.728Z,1.5
2017-02-14T09:26:44.735Z,1.4
2017-02-14T09:27:50.736Z,1.4
2017-02-14T09:28:56.738Z,1.5
2017-02-14T09:30:02.741Z,1.6
2017-02-14T09:31:08.748Z,1.5
2017-02-14T09:32:14.769Z,1.6
2017-02-14T09:33:20.767Z,1.7
2017-02-14T09:34:26.773Z,1.6
2017-02-14T09:35:32.776Z,1.6
2017-02-14T09:36:38.777Z,1.8
2017-02-14T09:37:44.773Z,1.8
2017-02-14T09:38:50.776Z,1.9
2017-02-14T09:39:56.799Z,2.1
2017-02-14T09:41:02.772Z,2.2
2017-02-14T09:42:08.768Z,2.1
2017-02-14T09:43:14.770Z,2.2
2017-02-14T09:44:20.783Z,2.2
2017-02-14T09:45:26.769Z,2.3
2017-02-14T09:46:32.808Z,2.5
2017-02-14T09:47:38.799Z,2.5
2017-02-14T09:48:44.803Z,2.6
2017-02-14T09:49:50.796Z,2.6
2017-02-14T09:50:55.579Z,2.5
2017-02-14T09:52:01.576Z,2.5
2017-02-14T09:53:07.579Z,2.8
2017-02-14T09:54:13.580Z,2.8
2017-02-14T09:55:19.598Z,2.8
2017-02-14T09:56:25.595Z,2.9
2017-02-14T09:57:31.608Z,3
2017-02-14T09:58:37.606Z,3.1
2017-02-14T09:59:43.615Z,3.2
2017-02-14T10:00:48.508Z,3.4
2017-02-14T10:01:54.511Z,3.7
2017-02-14T10:03:00.526Z,3.6
2017-02-14T10:04:06.518Z,3.7
2017-02-14T10:05:12.657Z,3.7
2017-02-14T10:06:18.553Z,3.7
2017-02-14T10:07:23.923Z,3.8
2017-02-14T10:08:29.929Z,3.9
2017-02-14T10:09:35.924Z,4.1
2017-02-14T10:10:41.936Z,4.2
2017-02-14T10:11:47.964Z,4.2
2017-02-14T10:12:54.207Z,4.4
2017-02-14T10:13:59.122Z,4.5
2017-02-14T10:15:05.145Z,4.6
2017-02-14T10:16:11.132Z,4.3
2017-02-14T10:17:17.130Z,4.4
2017-02-14T10:18:23.123Z,4.5
2017-02-14T10:19:29.133Z,4.7
2017-02-14T10:20:35.118Z,4.7
2017-02-14T10:21:40.458Z,4.7
2017-02-14T10:22:46.492Z,4.4
2017-02-14T10:23:52.487Z,4.6
2017-02-14T10:24:58.501Z,4.7
2017-02-14T10:26:04.491Z,4.9
2017-02-14T10:27:10.497Z,5.1
2017-02-14T10:28:16.612Z,5.5
2017-02-14T10:29:22.607Z,5.8
2017-02-14T10:30:28.617Z,5.9
2017-02-14T10:31:33.513Z,6.1
2017-02-14T10:32:38.860Z,6.1
2017-02-14T10:33:44.853Z,6.3
2017-02-14T10:34:50.195Z,6.3
2017-02-14T10:35:56.188Z,6.4
2017-02-14T10:37:01.091Z,6.6
2017-02-14T10:38:06.428Z,6.6
2017-02-14T10:39:12.705Z,6.7
2017-02-14T10:40:18.699Z,7
2017-02-14T10:41:24.705Z,7.1
2017-02-14T10:42:30.708Z,7.2
2017-02-14T10:43:36.705Z,7.3
2017-02-14T10:44:42.703Z,7.3
2017-02-14T10:45:48.701Z,7
2017-02-14T10:46:53.600Z,7.2
2017-02-14T10:47:59.599Z,7.2
2017-02-14T10:49:05.602Z,7
2017-02-14T10:50:11.600Z,6.8
2017-02-14T10:51:17.604Z,7.1
2017-02-14T10:52:22.515Z,6.7
2017-02-14T10:53:28.523Z,6.7
2017-02-14T10:54:33.416Z,7.1
2017-02-14T10:55:39.549Z,7.4
2017-02-14T10:56:45.470Z,7.7
2017-02-14T10:57:51.489Z,7
2017-02-14T10:58:57.479Z,7.5
2017-02-14T11:00:03.501Z,7.6
2017-02-14T11:01:09.492Z,7.8
2017-02-14T11:02:14.836Z,7.8
2017-02-14T11:03:20.175Z,7.7
2017-02-14T11:04:26.189Z,7.9
2017-02-14T11:05:32.209Z,7.9
2017-02-14T11:06:37.106Z,8.2
2017-02-14T11:07:42.009Z,7.9
2017-02-14T11:08:48.025Z,7.8
2017-02-14T11:09:54.011Z,8.1
2017-02-14T11:10:58.247Z,8.2
2017-02-14T11:12:04.252Z,8.4
2017-02-14T11:13:10.274Z,8.7
2017-02-14T11:14:15.162Z,8.5
2017-02-14T11:15:21.157Z,8.8
2017-02-14T11:16:27.163Z,9
2017-02-14T11:17:33.169Z,9.2
2017-02-14T11:18:39.169Z,9.4
2017-02-14T11:19:44.508Z,9.6
2017-02-14T11:20:50.509Z,9.4
2017-02-14T11:21:56.510Z,9.3
2017-02-14T11:23:02.507Z,9.1
2017-02-14T11:24:08.503Z,9.3
2017-02-14T11:25:14.496Z,9.3
2017-02-14T11:26:20.524Z,9.5
2017-02-14T11:27:25.854Z,9.8
2017-02-14T11:28:31.208Z,9.7
2017-02-14T11:29:37.204Z,10.1
2017-02-14T11:30:43.203Z,10.3
2017-02-14T11:31:49.213Z,10.4
2017-02-14T11:32:55.217Z,10.5
2017-02-14T11:34:01.217Z,10.5
2017-02-14T11:35:07.243Z,10.5
2017-02-14T11:36:13.261Z,10.6
2017-02-14T11:37:19.271Z,10.7
2017-02-14T11:38:25.290Z,10.9
2017-02-14T11:39:30.668Z,11.1
2017-02-14T11:40:35.977Z,11.2
2017-02-14T11:41:42.001Z,11.1
2017-02-14T11:42:47.347Z,11.2
2017-02-14T11:43:53.363Z,10.9
2017-02-14T11:44:59.383Z,10.8
2017-02-14T11:46:05.375Z,11.1
2017-02-14T11:47:11.379Z,11.3
2017-02-14T11:48:16.719Z,11.5
2017-02-14T11:49:22.050Z,11.7
2017-02-14T11:50:28.052Z,11.9
2017-02-14T11:51:34.063Z,11.9
2017-02-14T11:52:39.413Z,11.7
2017-02-14T11:53:44.316Z,11.8
2017-02-14T11:54:48.557Z,12.2
2017-02-14T11:55:54.573Z,12.6
2017-02-14T11:57:00.594Z,12.8
2017-02-14T11:58:05.483Z,12.3
2017-02-14T11:59:11.486Z,12.8
2017-02-14T12:00:16.829Z,12.7
2017-02-14T12:01:22.841Z,13.2
2017-02-14T12:02:28.839Z,14.3
2017-02-14T12:03:34.844Z,15
2017-02-14T12:04:40.841Z,15.7
2017-02-14T12:05:46.176Z,15.8
2017-02-14T12:06:52.180Z,16.7
2017-02-14T12:07:58.185Z,17.6
2017-02-14T12:09:04.186Z,18.2
2017-02-14T12:10:10.180Z,17.7
2017-02-14T12:11:16.190Z,18.6
2017-02-14T12:12:21.097Z,19
2017-02-14T12:13:26.439Z,19.5
2017-02-14T12:14:31.338Z,19.2
2017-02-14T12:15:37.338Z,19.5
2017-02-14T12:16:43.342Z,19
2017-02-14T12:17:49.334Z,18.1
2017-02-14T12:18:54.675Z,18.1
2017-02-14T12:20:00.015Z,17.5
2017-02-14T12:21:06.021Z,17.5
2017-02-14T12:22:12.019Z,17
2017-02-14T12:23:18.017Z,16.2
2017-02-14T12:24:23.352Z,15.8
2017-02-14T12:25:29.355Z,15.1
2017-02-14T12:26:35.354Z,15.5
2017-02-14T12:27:41.363Z,15.2
2017-02-14T12:28:47.370Z,14.8
2017-02-14T12:29:53.364Z,14.8
2017-02-14T12:30:59.355Z,14.6
2017-02-14T12:32:05.355Z,14.5
2017-02-14T12:33:11.358Z,14.4
2017-02-14T12:34:17.355Z,13.9
2017-02-14T12:35:23.355Z,13.4
2017-02-14T12:36:29.356Z,14
2017-02-14T12:37:35.361Z,13.8
2017-02-14T12:38:41.355Z,13.9
2017-02-14T12:43:58.092Z,14
2017-02-14T12:45:03.029Z,13.9
2017-02-14T12:46:09.139Z,13
2017-02-14T12:47:15.168Z,13
2017-02-14T12:48:21.214Z,13.7
2017-02-14T12:49:27.225Z,13.9
2017-02-14T12:50:33.255Z,14.2
2017-02-14T12:51:39.274Z,14.2
2017-02-14T12:52:45.321Z,13.8
2017-02-14T12:53:51.374Z,13.2
2017-02-14T12:54:56.734Z,13.7
2017-02-14T12:56:01.656Z,13.3
2017-02-14T12:57:07.704Z,13.5
2017-02-14T12:58:13.714Z,13
2017-02-14T12:59:19.739Z,13.6
2017-02-14T13:00:25.766Z,13.4
2017-02-14T13:01:31.817Z,13.3
2017-02-14T13:02:36.743Z,13.6
2017-02-14T13:03:41.024Z,13.8
2017-02-14T13:04:47.042Z,13.7
2017-02-14T13:05:53.077Z,13.2
2017-02-14T13:06:59.091Z,13.5
2017-02-14T13:08:05.178Z,13.7
2017-02-14T13:09:11.212Z,13.5
2017-02-14T13:10:17.225Z,13.3
2017-02-14T13:11:24.458Z,12.6
2017-02-14T13:12:30.649Z,12.5
2017-02-14T13:13:36.511Z,12.8
2017-02-14T13:14:42.540Z,12.5
2017-02-14T13:15:48.568Z,11.9
2017-02-14T13:16:54.611Z,12.7
2017-02-14T13:18:00.764Z,13.2
2017-02-14T13:19:06.682Z,13.1
2017-02-14T13:20:12.708Z,13.3
2017-02-14T13:21:18.733Z,13.3
2017-02-14T13:22:24.747Z,13.7
2017-02-14T13:23:30.900Z,13.7
2017-02-14T13:24:36.897Z,13.3
2017-02-14T13:25:42.904Z,13.1
2017-02-14T13:26:48.933Z,12.9
2017-02-14T13:27:54.963Z,12.7
2017-02-14T13:29:00.325Z,12.8
2017-02-14T13:30:06.353Z,12.7
2017-02-14T13:31:12.391Z,12.9
2017-02-14T13:32:18.441Z,13.4
2017-02-14T13:33:24.542Z,13.8
2017-02-14T13:34:30.752Z,14
2017-02-14T13:35:36.766Z,14.1
2017-02-14T13:36:42.790Z,13.7
2017-02-14T13:37:48.811Z,13.6
2017-02-14T13:38:54.836Z,13.7
2017-02-14T13:40:00.869Z,13.9
2017-02-14T13:41:06.901Z,14
2017-02-14T13:42:12.913Z,14.1
2017-02-14T13:43:18.940Z,14.2
2017-02-14T13:44:24.970Z,14.1
2017-02-14T13:45:31.039Z,14.1
2017-02-14T13:46:37.055Z,14
2017-02-14T13:47:43.091Z,13.7
2017-02-14T13:48:49.113Z,14
2017-02-14T13:49:55.136Z,14.3
2017-02-14T13:51:01.188Z,14
2017-02-14T13:52:07.207Z,14
2017-02-14T13:53:13.297Z,14
2017-02-14T13:54:19.322Z,14.1
2017-02-14T13:55:25.356Z,13.7
2017-02-14T13:56:31.382Z,13.6
2017-02-14T13:57:37.427Z,13.7
2017-02-14T13:58:43.470Z,13.8
2017-02-14T13:59:49.481Z,13.7
2017-02-14T14:00:55.520Z,13.9
2017-02-14T14:02:01.528Z,13.8
2017-02-14T14:03:07.595Z,14.1
2017-02-14T14:04:13.643Z,14
2017-02-14T14:05:19.654Z,13.7
2017-02-14T14:06:25.691Z,13.5
2017-02-14T14:07:31.711Z,13.5
2017-02-14T14:08:37.077Z,13.4
2017-02-14T14:09:43.105Z,13.3
2017-02-14T14:10:48.023Z,13.2
2017-02-14T14:11:54.046Z,12.9
2017-02-14T14:13:00.089Z,12.6
2017-02-14T14:14:06.113Z,12.7
2017-02-14T14:15:12.132Z,12.7
2017-02-14T14:16:18.163Z,12.4
2017-02-14T14:17:24.183Z,12.3
2017-02-14T14:18:30.202Z,12.3
2017-02-14T14:19:36.228Z,12.3
2017-02-14T14:20:42.250Z,11.9
2017-02-14T14:21:48.275Z,11.5
2017-02-14T14:22:54.291Z,11.6
2017-02-14T14:24:00.318Z,11.5
2017-02-14T14:25:06.344Z,11.3
2017-02-14T14:26:12.373Z,11
2017-02-14T14:27:18.385Z,11
2017-02-14T14:28:24.414Z,10.9
2017-02-14T14:29:30.435Z,10.8
2017-02-14T14:30:35.791Z,10.8
2017-02-14T14:31:41.817Z,10.6
2017-02-14T14:32:47.839Z,10.6
2017-02-14T14:33:53.862Z,10.5
2017-02-14T14:34:59.885Z,10.4
2017-02-14T14:36:05.910Z,9.9
2017-02-14T14:37:11.932Z,9.8
2017-02-14T14:38:17.957Z,9.6
2017-02-14T14:39:23.962Z,9.5
2017-02-14T14:40:29.989Z,9.3
2017-02-14T14:41:35.999Z,9.3
2017-02-14T14:42:42.024Z,9.4
2017-02-14T14:43:48.053Z,9.4
2017-02-14T14:44:53.533Z,9.3
2017-02-14T14:45:59.550Z,9
2017-02-14T14:47:05.578Z,8.9
2017-02-14T14:48:11.596Z,8.9
2017-02-14T14:49:17.685Z,8.9